createdAt,value
2023-02-08T09:42:40.419Z,75.20
2023-02-08T11:32:14.526Z,61.10
2023-02-08T11:52:46.352Z,45.60
2023-02-08T11:58:14.833Z,33.30
2023-02-08T12:03:27.598Z,34.30
2023-02-08T12:20:04.810Z,33.80
2023-02-08T13:56:01.284Z,37.60
2023-02-08T14:01:15.143Z,46.50
2023-02-08T14:06:26.187Z,45.40
2023-02-08T14:11:46.742Z,50.00
2023-02-08T14:17:04.241Z,42.50
2023-02-08T14:22:12.247Z,49.30
2023-02-08T14:27:32.613Z,49.30
2023-02-08T14:32:40.935Z,47.50
2023-02-08T14:37:44.941Z,46.70
2023-02-08T14:42:58.731Z,56.80
2023-02-08T14:48:21.284Z,46.30
2023-02-08T14:53:59.950Z,49.60
2023-02-08T14:59:09.243Z,51.20
2023-02-08T15:04:13.530Z,50.40
2023-02-08T15:09:23.248Z,46.70
2023-02-08T15:14:26.152Z,48.10
2023-02-08T15:19:38.577Z,54.10
2023-02-08T15:24:55.091Z,50.90
2023-02-08T15:29:57.432Z,47.40
2023-02-08T15:35:04.767Z,51.40
2023-02-08T15:40:07.691Z,53.90
2023-02-08T15:45:30.844Z,51.40
2023-02-08T15:50:33.928Z,50.20
2023-02-08T15:55:51.367Z,53.10
2023-02-08T16:00:54.054Z,50.00
2023-02-08T16:06:02.089Z,48.60
2023-02-08T16:11:20.975Z,48.50
2023-02-08T16:16:35.350Z,48.80
2023-02-08T16:21:42.361Z,49.00
2023-02-08T16:27:04.542Z,48.70
2023-02-08T16:32:32.092Z,49.30
2023-02-08T16:37:35.936Z,49.00
2023-02-08T16:42:40.555Z,49.60
2023-02-08T16:47:47.484Z,50.20
2023-02-08T16:53:01.596Z,50.20
2023-02-08T16:58:03.976Z,50.10
2023-02-08T17:03:06.111Z,50.20
2023-02-08T17:08:16.001Z,50.20
2023-02-08T17:13:21.179Z,50.20
2023-02-08T17:18:23.695Z,50.60
2023-02-08T17:23:27.012Z,50.10
2023-02-08T17:28:29.323Z,50.60
2023-02-08T17:33:36.437Z,50.80
2023-02-08T17:38:40.053Z,51.10
2023-02-08T17:43:42.242Z,51.50
2023-02-08T17:48:47.262Z,52.30
2023-02-08T17:53:51.433Z,52.30
2023-02-08T17:58:56.017Z,52.40
2023-02-08T18:04:01.013Z,52.00
2023-02-08T18:09:03.794Z,53.10
2023-02-08T18:14:06.271Z,53.30
2023-02-08T18:19:08.848Z,53.70
2023-02-08T18:54:32.452Z,53.70
2023-02-08T18:59:34.611Z,54.20
2023-02-08T19:04:38.956Z,54.10
2023-02-08T19:09:41.190Z,53.90
2023-02-08T19:14:44.089Z,54.30
2023-02-08T19:19:46.767Z,53.70
2023-02-08T19:24:48.906Z,54.90
